CFG32B EVRA-EVRA
Flight info
| Callsign | CFG32B |
|---|---|
| Flight time | 0h 41m |
| Altitude | 36000 |
| Route | VALED DCT LEP DCT PIVAX DCT MILTA DCT LAPSA |
| Aircraft | A21N/M-SDE3FGHIRWY/LB1 |
Departure
| Time | 2026-05-05 18:57 |
|---|---|
| Airport | Riga International Airport (EVRA) |
Arrival
| Time | 2026-05-05 19:38 |
|---|---|
| Airport | Riga International Airport (EVRA) |
| Time | Latitude | Longitude | Altitude | Speed | Heading |
|---|---|---|---|---|---|
| 2026-05-05 18:12 | 56.92195 | 23.97583 | 40 ft | 0 kts | 4° |
| 2026-05-05 18:52 | 56.92200 | 23.97583 | 39 ft | 1 kts | 355° |
| 2026-05-05 18:52 | 56.92213 | 23.97565 | 39 ft | 3 kts | 301° |
| 2026-05-05 18:52 | 56.92214 | 23.97504 | 39 ft | 6 kts | 235° |
| 2026-05-05 18:53 | 56.92168 | 23.97470 | 39 ft | 8 kts | 191° |
| 2026-05-05 18:53 | 56.92108 | 23.97457 | 39 ft | 9 kts | 185° |
| 2026-05-05 18:53 | 56.92038 | 23.97446 | 39 ft | 10 kts | 184° |
| 2026-05-05 18:53 | 56.91960 | 23.97438 | 39 ft | 11 kts | 182° |
| 2026-05-05 18:54 | 56.91876 | 23.97431 | 39 ft | 12 kts | 184° |
| 2026-05-05 18:54 | 56.91785 | 23.97416 | 39 ft | 13 kts | 186° |
| 2026-05-05 18:54 | 56.91691 | 23.97399 | 39 ft | 13 kts | 184° |
| 2026-05-05 18:54 | 56.91593 | 23.97386 | 39 ft | 14 kts | 184° |
| 2026-05-05 18:55 | 56.91492 | 23.97370 | 40 ft | 14 kts | 186° |
| 2026-05-05 18:55 | 56.91390 | 23.97349 | 40 ft | 14 kts | 193° |
| 2026-05-05 18:55 | 56.91307 | 23.97235 | 40 ft | 15 kts | 231° |
| 2026-05-05 18:55 | 56.91257 | 23.97062 | 40 ft | 15 kts | 269° |
| 2026-05-05 18:56 | 56.91330 | 23.96954 | 39 ft | 15 kts | 1° |
| 2026-05-05 18:56 | 56.91469 | 23.96971 | 39 ft | 40 kts | 5° |
| 2026-05-05 18:56 | 56.91994 | 23.97056 | 38 ft | 108 kts | 5° |
| 2026-05-05 18:56 | 56.92950 | 23.97213 | 55 ft | 160 kts | 5° |
| 2026-05-05 18:57 | 56.94078 | 23.97370 | 540 ft | 167 kts | 2° |
| 2026-05-05 18:57 | 56.95227 | 23.97504 | 1302 ft | 165 kts | 2° |
| 2026-05-05 18:57 | 56.96352 | 23.97670 | 2021 ft | 165 kts | 1° |
| 2026-05-05 18:57 | 56.97533 | 23.97850 | 2377 ft | 178 kts | 1° |
| 2026-05-05 18:58 | 56.98819 | 23.98054 | 2692 ft | 194 kts | 2° |
| 2026-05-05 18:58 | 57.00212 | 23.98285 | 3006 ft | 211 kts | 2° |
| 2026-05-05 18:58 | 57.01765 | 23.98545 | 3206 ft | 235 kts | 2° |
| 2026-05-05 18:58 | 57.03430 | 23.98832 | 3655 ft | 250 kts | 3° |
| 2026-05-05 18:59 | 57.05194 | 23.98961 | 4218 ft | 257 kts | 349° |
| 2026-05-05 18:59 | 57.06819 | 23.97710 | 4913 ft | 256 kts | 320° |
| 2026-05-05 18:59 | 57.07921 | 23.95239 | 5650 ft | 255 kts | 295° |
| 2026-05-05 18:59 | 57.08661 | 23.92322 | 6426 ft | 257 kts | 292° |
| 2026-05-05 19:00 | 57.09410 | 23.89335 | 7205 ft | 260 kts | 292° |
| 2026-05-05 19:00 | 57.10175 | 23.86313 | 8012 ft | 261 kts | 291° |
| 2026-05-05 19:00 | 57.10660 | 23.83172 | 8746 ft | 258 kts | 268° |
| 2026-05-05 19:00 | 57.10182 | 23.80051 | 9513 ft | 258 kts | 243° |
| 2026-05-05 19:01 | 57.09310 | 23.77221 | 10252 ft | 260 kts | 243° |
| 2026-05-05 19:01 | 57.08431 | 23.74235 | 10656 ft | 274 kts | 244° |
| 2026-05-05 19:01 | 57.07520 | 23.71049 | 10966 ft | 290 kts | 244° |
| 2026-05-05 19:01 | 57.06560 | 23.67648 | 11263 ft | 306 kts | 244° |
| 2026-05-05 19:02 | 57.05561 | 23.64089 | 11556 ft | 321 kts | 244° |
| 2026-05-05 19:02 | 57.04530 | 23.60403 | 11887 ft | 333 kts | 244° |
| 2026-05-05 19:02 | 57.03472 | 23.56627 | 12440 ft | 338 kts | 244° |
| 2026-05-05 19:02 | 57.02383 | 23.52736 | 13101 ft | 340 kts | 244° |
| 2026-05-05 19:03 | 57.01313 | 23.48910 | 13711 ft | 341 kts | 244° |
| 2026-05-05 19:03 | 57.00220 | 23.45011 | 14280 ft | 344 kts | 244° |
| 2026-05-05 19:03 | 56.99135 | 23.41135 | 14844 ft | 346 kts | 244° |
| 2026-05-05 19:03 | 56.98043 | 23.37236 | 15418 ft | 347 kts | 244° |
| 2026-05-05 19:04 | 56.96935 | 23.33293 | 15986 ft | 349 kts | 243° |
| 2026-05-05 19:04 | 56.95826 | 23.29357 | 16525 ft | 351 kts | 243° |
| 2026-05-05 19:04 | 56.94706 | 23.25380 | 17044 ft | 352 kts | 243° |
| 2026-05-05 19:04 | 56.93584 | 23.21409 | 17521 ft | 355 kts | 243° |
| 2026-05-05 19:05 | 56.92448 | 23.17393 | 18010 ft | 357 kts | 243° |
| 2026-05-05 19:05 | 56.91303 | 23.13353 | 18474 ft | 359 kts | 243° |
| 2026-05-05 19:05 | 56.90154 | 23.09305 | 18919 ft | 361 kts | 243° |
| 2026-05-05 19:05 | 56.89000 | 23.05250 | 19364 ft | 363 kts | 243° |
| 2026-05-05 19:06 | 56.87838 | 23.01174 | 19810 ft | 365 kts | 243° |
| 2026-05-05 19:06 | 56.86653 | 22.97023 | 20235 ft | 368 kts | 243° |
| 2026-05-05 19:06 | 56.85487 | 22.92945 | 20649 ft | 370 kts | 243° |
| 2026-05-05 19:06 | 56.84297 | 22.88787 | 21070 ft | 371 kts | 243° |
| 2026-05-05 19:07 | 56.83089 | 22.84575 | 21466 ft | 373 kts | 243° |
| 2026-05-05 19:07 | 56.81895 | 22.80426 | 21864 ft | 375 kts | 243° |
| 2026-05-05 19:07 | 56.80673 | 22.76182 | 22237 ft | 377 kts | 243° |
| 2026-05-05 19:07 | 56.79467 | 22.72003 | 22594 ft | 379 kts | 243° |
| 2026-05-05 19:08 | 56.78234 | 22.67736 | 22931 ft | 381 kts | 243° |
| 2026-05-05 19:08 | 56.76994 | 22.63455 | 23251 ft | 383 kts | 243° |
| 2026-05-05 19:08 | 56.75757 | 22.59192 | 23583 ft | 385 kts | 243° |
| 2026-05-05 19:08 | 56.74500 | 22.54867 | 23899 ft | 387 kts | 243° |
| 2026-05-05 19:09 | 56.73284 | 22.50489 | 24191 ft | 390 kts | 245° |
| 2026-05-05 19:09 | 56.72229 | 22.45997 | 24497 ft | 392 kts | 249° |
| 2026-05-05 19:09 | 56.71327 | 22.41331 | 24799 ft | 393 kts | 252° |
| 2026-05-05 19:09 | 56.70578 | 22.36508 | 25082 ft | 396 kts | 254° |
| 2026-05-05 19:10 | 56.69869 | 22.31685 | 25366 ft | 397 kts | 253° |
| 2026-05-05 19:10 | 56.69164 | 22.26864 | 25679 ft | 399 kts | 254° |
| 2026-05-05 19:10 | 56.68454 | 22.22014 | 25966 ft | 400 kts | 254° |
| 2026-05-05 19:10 | 56.67736 | 22.17110 | 26223 ft | 402 kts | 254° |
| 2026-05-05 19:11 | 56.67014 | 22.12197 | 26486 ft | 404 kts | 254° |
| 2026-05-05 19:11 | 56.66293 | 22.07296 | 26736 ft | 406 kts | 254° |
| 2026-05-05 19:11 | 56.65568 | 22.02389 | 26999 ft | 407 kts | 254° |
| 2026-05-05 19:11 | 56.64836 | 21.97439 | 27374 ft | 405 kts | 254° |
| 2026-05-05 19:12 | 56.64106 | 21.92527 | 27776 ft | 403 kts | 254° |
| 2026-05-05 19:12 | 56.63374 | 21.87644 | 28149 ft | 402 kts | 254° |
| 2026-05-05 19:12 | 56.62645 | 21.82778 | 28519 ft | 401 kts | 254° |
| 2026-05-05 19:12 | 56.61922 | 21.77952 | 28897 ft | 399 kts | 254° |
| 2026-05-05 19:13 | 56.61191 | 21.73083 | 29264 ft | 398 kts | 254° |
| 2026-05-05 19:13 | 56.60470 | 21.68304 | 29628 ft | 397 kts | 254° |
| 2026-05-05 19:13 | 56.59905 | 21.63449 | 29962 ft | 398 kts | 263° |
| 2026-05-05 19:13 | 56.59969 | 21.58438 | 30295 ft | 402 kts | 274° |
| 2026-05-05 19:14 | 56.60604 | 21.53459 | 30679 ft | 406 kts | 284° |
| 2026-05-05 19:14 | 56.61764 | 21.48771 | 31017 ft | 412 kts | 295° |
| 2026-05-05 19:14 | 56.63413 | 21.44565 | 31325 ft | 419 kts | 305° |
| 2026-05-05 19:14 | 56.65555 | 21.40925 | 31553 ft | 422 kts | 316° |
| 2026-05-05 19:15 | 56.68030 | 21.38167 | 31464 ft | 424 kts | 327° |
| 2026-05-05 19:15 | 56.70808 | 21.36350 | 30901 ft | 433 kts | 339° |
| 2026-05-05 19:15 | 56.73819 | 21.35621 | 29988 ft | 450 kts | 353° |
| 2026-05-05 19:15 | 56.77000 | 21.35814 | 29075 ft | 458 kts | 358° |
| 2026-05-05 19:16 | 56.80138 | 21.36198 | 28250 ft | 461 kts | 358° |
| 2026-05-05 19:16 | 56.83321 | 21.36619 | 27410 ft | 462 kts | 359° |
| 2026-05-05 19:16 | 56.86526 | 21.37034 | 26566 ft | 463 kts | 358° |
| 2026-05-05 19:16 | 56.89729 | 21.37433 | 25719 ft | 464 kts | 358° |
| 2026-05-05 19:17 | 56.92915 | 21.37816 | 24896 ft | 464 kts | 358° |
| 2026-05-05 19:17 | 56.96099 | 21.38547 | 24267 ft | 467 kts | 9° |
| 2026-05-05 19:17 | 56.99041 | 21.40993 | 23630 ft | 475 kts | 31° |
| 2026-05-05 19:17 | 57.01393 | 21.45166 | 23026 ft | 477 kts | 52° |
| 2026-05-05 19:18 | 57.02870 | 21.50627 | 22366 ft | 475 kts | 74° |
| 2026-05-05 19:18 | 57.03289 | 21.56476 | 21746 ft | 468 kts | 94° |
| 2026-05-05 19:18 | 57.02803 | 21.62274 | 21127 ft | 458 kts | 108° |
| 2026-05-05 19:18 | 57.01959 | 21.67893 | 20543 ft | 454 kts | 110° |
| 2026-05-05 19:19 | 57.01120 | 21.73439 | 19950 ft | 450 kts | 109° |
| 2026-05-05 19:19 | 57.00325 | 21.78912 | 19370 ft | 447 kts | 109° |
| 2026-05-05 19:19 | 56.99558 | 21.84399 | 18777 ft | 444 kts | 108° |
| 2026-05-05 19:19 | 56.98815 | 21.89861 | 18219 ft | 440 kts | 108° |
| 2026-05-05 19:20 | 56.98096 | 21.95221 | 17662 ft | 437 kts | 108° |
| 2026-05-05 19:20 | 56.97382 | 22.00566 | 17110 ft | 433 kts | 108° |
| 2026-05-05 19:20 | 56.96668 | 22.05927 | 16557 ft | 430 kts | 107° |
| 2026-05-05 19:20 | 56.95964 | 22.11204 | 16009 ft | 426 kts | 107° |
| 2026-05-05 19:21 | 56.95267 | 22.16427 | 15463 ft | 423 kts | 107° |
| 2026-05-05 19:21 | 56.94577 | 22.21590 | 14922 ft | 419 kts | 107° |
| 2026-05-05 19:21 | 56.93883 | 22.26762 | 14375 ft | 416 kts | 107° |
| 2026-05-05 19:21 | 56.93200 | 22.31839 | 13835 ft | 412 kts | 107° |
| 2026-05-05 19:22 | 56.92521 | 22.36865 | 13314 ft | 409 kts | 106° |
| 2026-05-05 19:22 | 56.91842 | 22.41886 | 12813 ft | 405 kts | 106° |
| 2026-05-05 19:22 | 56.91172 | 22.46807 | 12276 ft | 401 kts | 106° |
| 2026-05-05 19:22 | 56.90502 | 22.51723 | 11944 ft | 396 kts | 106° |
| 2026-05-05 19:23 | 56.89835 | 22.56604 | 11902 ft | 397 kts | 106° |
| 2026-05-05 19:23 | 56.89167 | 22.61469 | 11898 ft | 398 kts | 106° |
| 2026-05-05 19:23 | 56.88495 | 22.66359 | 11698 ft | 397 kts | 107° |
| 2026-05-05 19:23 | 56.87818 | 22.71254 | 11447 ft | 394 kts | 107° |
| 2026-05-05 19:24 | 56.87152 | 22.76061 | 11191 ft | 392 kts | 107° |
| 2026-05-05 19:24 | 56.86482 | 22.80886 | 10908 ft | 390 kts | 107° |
| 2026-05-05 19:24 | 56.85822 | 22.85617 | 10572 ft | 388 kts | 107° |
| 2026-05-05 19:24 | 56.85165 | 22.90317 | 10300 ft | 377 kts | 107° |
| 2026-05-05 19:25 | 56.84526 | 22.94900 | 10209 ft | 361 kts | 107° |
| 2026-05-05 19:25 | 56.83918 | 22.99244 | 10121 ft | 346 kts | 107° |
| 2026-05-05 19:25 | 56.83338 | 23.03364 | 10047 ft | 332 kts | 107° |
| 2026-05-05 19:25 | 56.82943 | 23.07456 | 9959 ft | 321 kts | 97° |
| 2026-05-05 19:26 | 56.82814 | 23.11460 | 9885 ft | 316 kts | 94° |
| 2026-05-05 19:26 | 56.82729 | 23.15452 | 9813 ft | 316 kts | 94° |
| 2026-05-05 19:26 | 56.82650 | 23.19442 | 9739 ft | 315 kts | 93° |
| 2026-05-05 19:26 | 56.82571 | 23.23426 | 9637 ft | 313 kts | 93° |
| 2026-05-05 19:27 | 56.82486 | 23.27371 | 9310 ft | 311 kts | 93° |
| 2026-05-05 19:27 | 56.82399 | 23.31289 | 8984 ft | 308 kts | 93° |
| 2026-05-05 19:27 | 56.82311 | 23.35167 | 8629 ft | 306 kts | 93° |
| 2026-05-05 19:27 | 56.82222 | 23.38987 | 8190 ft | 306 kts | 93° |
| 2026-05-05 19:28 | 56.82127 | 23.42828 | 7806 ft | 300 kts | 93° |
| 2026-05-05 19:28 | 56.82029 | 23.46597 | 7296 ft | 296 kts | 93° |
| 2026-05-05 19:28 | 56.81928 | 23.50302 | 6764 ft | 293 kts | 93° |
| 2026-05-05 19:28 | 56.81825 | 23.53954 | 6240 ft | 289 kts | 93° |
| 2026-05-05 19:29 | 56.81551 | 23.57570 | 5708 ft | 284 kts | 110° |
| 2026-05-05 19:29 | 56.80559 | 23.60547 | 5336 ft | 279 kts | 132° |
| 2026-05-05 19:29 | 56.79198 | 23.63106 | 4945 ft | 278 kts | 137° |
| 2026-05-05 19:29 | 56.77807 | 23.65490 | 4562 ft | 277 kts | 139° |
| 2026-05-05 19:30 | 56.76385 | 23.67870 | 4178 ft | 275 kts | 139° |
| 2026-05-05 19:30 | 56.74984 | 23.70177 | 3794 ft | 274 kts | 139° |
| 2026-05-05 19:30 | 56.73565 | 23.72485 | 3512 ft | 269 kts | 139° |
| 2026-05-05 19:30 | 56.72200 | 23.74684 | 3255 ft | 264 kts | 139° |
| 2026-05-05 19:31 | 56.70821 | 23.76884 | 2992 ft | 259 kts | 139° |
| 2026-05-05 19:31 | 56.69482 | 23.79003 | 2740 ft | 256 kts | 139° |
| 2026-05-05 19:31 | 56.68205 | 23.81161 | 2499 ft | 249 kts | 127° |
| 2026-05-05 19:31 | 56.67533 | 23.83944 | 2455 ft | 234 kts | 93° |
| 2026-05-05 19:32 | 56.67766 | 23.86756 | 2462 ft | 224 kts | 60° |
| 2026-05-05 19:32 | 56.68656 | 23.88911 | 2502 ft | 206 kts | 42° |
| 2026-05-05 19:32 | 56.69624 | 23.90641 | 2534 ft | 185 kts | 39° |
| 2026-05-05 19:32 | 56.70511 | 23.92152 | 2487 ft | 163 kts | 35° |
| 2026-05-05 19:33 | 56.71421 | 23.93089 | 2438 ft | 138 kts | 16° |
| 2026-05-05 19:33 | 56.72319 | 23.93555 | 2453 ft | 135 kts | 8° |
| 2026-05-05 19:33 | 56.73251 | 23.93852 | 2468 ft | 136 kts | 5° |
| 2026-05-05 19:33 | 56.74186 | 23.94072 | 2476 ft | 136 kts | 3° |
| 2026-05-05 19:34 | 56.75126 | 23.94262 | 2479 ft | 136 kts | 2° |
| 2026-05-05 19:34 | 56.76073 | 23.94438 | 2482 ft | 136 kts | 2° |
| 2026-05-05 19:34 | 56.77013 | 23.94603 | 2485 ft | 136 kts | 2° |
| 2026-05-05 19:35 | 56.78899 | 23.94918 | 2381 ft | 136 kts | 2° |
| 2026-05-05 19:35 | 56.79849 | 23.95073 | 2198 ft | 136 kts | 2° |
| 2026-05-05 19:35 | 56.80780 | 23.95225 | 2020 ft | 135 kts | 2° |
| 2026-05-05 19:35 | 56.81708 | 23.95376 | 1841 ft | 135 kts | 2° |
| 2026-05-05 19:36 | 56.82642 | 23.95528 | 1656 ft | 134 kts | 2° |
| 2026-05-05 19:36 | 56.83569 | 23.95679 | 1471 ft | 134 kts | 2° |
| 2026-05-05 19:36 | 56.84511 | 23.95830 | 1286 ft | 135 kts | 2° |
| 2026-05-05 19:36 | 56.85443 | 23.95954 | 1116 ft | 134 kts | 1° |
| 2026-05-05 19:37 | 56.86365 | 23.96094 | 895 ft | 134 kts | 3° |
| 2026-05-05 19:37 | 56.87291 | 23.96279 | 675 ft | 134 kts | 4° |
| 2026-05-05 19:37 | 56.88243 | 23.96444 | 561 ft | 143 kts | 3° |
| 2026-05-05 19:37 | 56.89249 | 23.96589 | 440 ft | 143 kts | 3° |
| 2026-05-05 19:38 | 56.90225 | 23.96757 | 196 ft | 139 kts | 4° |
| 2026-05-05 19:38 | 56.91168 | 23.96916 | 53 ft | 130 kts | 4° |
| 2026-05-05 19:38 | 56.91965 | 23.97046 | 38 ft | 97 kts | 5° |
| 2026-05-05 19:38 | 56.92387 | 23.97179 | 38 ft | 35 kts | 24° |
| 2026-05-05 19:39 | 56.92536 | 23.97345 | 38 ft | 8 kts | 36° |
| 2026-05-05 19:39 | 56.92547 | 23.97358 | 39 ft | 0 kts | 35° |
| 2026-05-05 19:39 | 56.92585 | 23.97409 | 39 ft | 11 kts | 38° |
| 2026-05-05 19:39 | 56.92600 | 23.97518 | 39 ft | 9 kts | 150° |
| 2026-05-05 19:40 | 56.92535 | 23.97551 | 39 ft | 10 kts | 187° |
| 2026-05-05 19:40 | 56.92459 | 23.97533 | 39 ft | 11 kts | 187° |
| 2026-05-05 19:40 | 56.92376 | 23.97509 | 39 ft | 12 kts | 189° |
| 2026-05-05 19:40 | 56.92288 | 23.97488 | 39 ft | 13 kts | 186° |
| 2026-05-05 19:41 | 56.92195 | 23.97474 | 39 ft | 13 kts | 185° |
| 2026-05-05 19:41 | 56.92146 | 23.97496 | 39 ft | 6 kts | 117° |
| 2026-05-05 19:41 | 56.92150 | 23.97568 | 39 ft | 5 kts | 26° |
| 2026-05-05 19:41 | 56.92189 | 23.97581 | 39 ft | 0 kts | 6° |
| 2026-05-05 19:42 | 56.92192 | 23.97582 | 39 ft | 0 kts | 6° |
| 2026-05-05 19:42 | 56.92196 | 23.97582 | 39 ft | 0 kts | 6° |